Time;durP1;ratioP1;P1;durP2;ratioP2;P2;SDS_P1;SDS_P2;PMS_P1;PMS_P2;Temp;Humidity;BMP_temperature;BMP_pressure;BME280_temperature;BME280_humidity;BME280_pressure;Samples;Min_cycle;Max_cycle;Signal;HPM_P1;HPM_P2
2022/10/07 00:01:25;;;;;;;15.37;2.57;;;;;;;19.54;46.44;102749.84;5091354;28;20016;-75
2022/10/07 00:03:50;;;;;;;12.33;2.33;;;;;;;19.10;46.61;102742.56;5093741;28;20020;-75
2022/10/07 00:06:19;;;;;;;10.17;2.50;;;;;;;19.90;45.27;102742.13;5089067;28;20077;-75
2022/10/07 00:08:47;;;;;;;12.47;2.67;;;;;;;19.70;45.85;102742.47;5090522;28;20375;-75
2022/10/07 00:11:18;;;;;;;9.83;2.50;;;;;;;19.27;46.21;102738.78;5089887;28;20088;-74
2022/10/07 00:13:45;;;;;;;14.30;2.50;;;;;;;19.86;45.16;102735.13;5092233;28;20035;-74
2022/10/07 00:16:14;;;;;;;12.30;2.23;;;;;;;19.69;45.84;102725.69;5095600;28;20158;-74
2022/10/07 00:18:40;;;;;;;17.83;3.17;;;;;;;19.60;45.83;102731.16;5090930;28;20060;-75
2022/10/07 00:21:08;;;;;;;18.67;2.77;;;;;;;19.78;45.80;102730.81;5089729;28;20020;-75
2022/10/07 00:23:35;;;;;;;13.23;2.60;;;;;;;19.37;46.00;102724.50;5090865;28;20024;-74
2022/10/07 00:26:06;;;;;;;22.03;2.63;;;;;;;19.76;45.21;102732.63;5089774;28;20072;-74
2022/10/07 00:28:33;;;;;;;18.70;3.73;;;;;;;19.69;45.43;102724.78;5090470;28;20031;-75
2022/10/07 00:31:00;;;;;;;14.40;2.53;;;;;;;19.71;45.95;102723.88;5089149;28;20028;-75
2022/10/07 00:33:29;;;;;;;18.37;2.70;;;;;;;19.94;45.50;102727.91;5090479;28;20081;-75
2022/10/07 00:35:54;;;;;;;16.57;2.57;;;;;;;20.25;44.44;102714.00;5090209;28;20046;-75
2022/10/07 00:38:20;;;;;;;12.13;2.60;;;;;;;20.33;44.31;102707.63;5090849;28;20472;-75
2022/10/07 00:40:46;;;;;;;13.60;2.87;;;;;;;19.61;45.94;102717.84;5089555;28;20058;-75
2022/10/07 00:43:20;;;;;;;13.77;2.90;;;;;;;19.53;46.61;102703.00;5090547;28;20042;-74
2022/10/07 00:45:45;;;;;;;15.80;2.80;;;;;;;20.07;45.23;102709.94;5093854;28;20023;-75
2022/10/07 00:48:11;;;;;;;17.27;2.90;;;;;;;20.29;44.82;102710.38;5101634;28;20442;-75
2022/10/07 00:50:37;;;;;;;15.90;2.97;;;;;;;19.53;46.23;102703.00;5080688;28;20130;-75
2022/10/07 00:53:03;;;;;;;17.50;3.07;;;;;;;20.07;45.11;102701.97;5090867;28;20135;-74
2022/10/07 00:55:31;;;;;;;10.70;2.60;;;;;;;20.05;45.56;102707.31;5083027;28;20487;-75
2022/10/07 00:58:02;;;;;;;19.03;2.90;;;;;;;19.76;46.23;102713.19;5069913;28;20028;-75
2022/10/07 01:00:27;;;;;;;13.23;2.53;;;;;;;20.16;45.02;102694.69;5086324;28;20057;-74
2022/10/07 01:02:52;;;;;;;17.83;3.40;;;;;;;20.57;43.81;102699.16;5089778;28;20543;-74
2022/10/07 01:05:19;;;;;;;14.27;2.57;;;;;;;20.38;44.33;102694.25;5088764;28;20386;-75
2022/10/07 01:07:46;;;;;;;16.27;2.43;;;;;;;19.87;45.70;102691.78;5090352;28;20044;-74
2022/10/07 01:10:14;;;;;;;17.23;2.87;;;;;;;19.83;45.83;102686.53;5087959;28;20066;-75
2022/10/07 01:12:48;;;;;;;16.90;2.50;;;;;;;19.57;46.80;102683.47;5090459;28;20032;-74
2022/10/07 01:15:52;;;;;;;10.90;2.40;;;;;;;19.80;46.33;102681.28;5090795;28;20043;-75
2022/10/07 01:18:24;;;;;;;19.63;2.90;;;;;;;20.17;45.18;102675.22;5065954;28;20399;-74
2022/10/07 01:21:40;;;;;;;11.68;2.50;;;;;;;19.93;45.66;102670.41;5095479;28;20032;-74
2022/10/07 01:24:25;;;;;;;25.53;2.77;;;;;;;19.65;46.43;102676.25;5071851;28;20077;-75
2022/10/07 01:26:57;;;;;;;16.40;2.70;;;;;;;19.98;45.83;102668.56;5057038;28;20028;-75
2022/10/07 01:29:44;;;;;;;21.50;2.80;;;;;;;19.97;46.02;102658.84;5079123;28;20032;-75
2022/10/07 01:32:35;;;;;;;14.37;2.77;;;;;;;19.63;47.60;102662.13;5088601;28;20047;-74
2022/10/07 01:35:04;;;;;;;17.50;2.73;;;;;;;19.89;46.96;102652.81;5091289;28;20115;-75
2022/10/07 01:37:34;;;;;;;21.90;2.60;;;;;;;19.89;46.70;102652.81;5090463;28;20107;-75
2022/10/07 01:40:06;;;;;;;16.73;3.10;;;;;;;19.42;47.15;102647.50;5089062;28;20032;-75
2022/10/07 01:42:32;;;;;;;18.42;3.35;;;;;;;19.76;47.07;102637.13;5093103;28;20067;-75
2022/10/07 01:44:59;;;;;;;18.00;2.40;;;;;;;18.94;49.43;102640.38;5092817;28;20032;-75
2022/10/07 01:47:25;;;;;;;14.97;2.47;;;;;;;19.61;47.96;102635.63;5091063;28;20016;-75
2022/10/07 01:49:51;;;;;;;18.53;3.33;;;;;;;19.47;48.70;102630.59;5090050;28;20024;-75
2022/10/07 01:52:23;;;;;;;22.43;3.50;;;;;;;19.35;48.27;102614.91;5087714;28;20038;-75
2022/10/07 01:54:51;;;;;;;21.43;3.73;;;;;;;18.73;50.20;102623.91;5091215;28;20471;-75
2022/10/07 01:57:33;;;;;;;18.10;2.60;;;;;;;19.71;47.70;102606.28;5106073;28;20028;-75
2022/10/07 02:00:06;;;;;;;21.67;2.73;;;;;;;19.83;47.19;102611.38;5093142;28;20081;-74
2022/10/07 02:02:52;;;;;;;18.57;3.07;;;;;;;19.15;49.39;102608.22;5105260;28;20502;-75
2022/10/07 02:05:39;;;;;;;20.10;3.30;;;;;;;18.65;49.99;102601.97;5087534;28;20085;-75
2022/10/07 02:08:29;;;;;;;9.43;2.73;;;;;;;19.52;48.48;102596.03;5087872;28;20514;-75
2022/10/07 02:11:13;;;;;;;16.27;3.10;;;;;;;19.19;49.42;102602.84;5096725;28;20038;-75
2022/10/07 02:14:01;;;;;;;16.93;3.30;;;;;;;19.24;48.61;102596.56;5091424;28;20517;-75
2022/10/07 02:17:09;;;;;;;17.57;2.70;;;;;;;19.50;48.41;102588.09;5081177;28;20486;-75
2022/10/07 02:19:39;;;;;;;25.40;3.30;;;;;;;19.42;48.49;102582.06;5084407;28;20036;-74
2022/10/07 02:22:08;;;;;;;16.57;3.10;;;;;;;19.58;48.04;102573.84;5085482;28;20128;-74
2022/10/07 02:24:36;;;;;;;18.50;3.13;;;;;;;19.69;47.38;102569.19;5085889;28;20039;-74
2022/10/07 02:27:10;;;;;;;13.07;2.93;;;;;;;19.42;48.42;102574.13;5090752;28;20439;-74
2022/10/07 02:29:38;;;;;;;19.13;3.00;;;;;;;19.65;47.47;102563.06;5087767;28;20028;-75
2022/10/07 02:32:08;;;;;;;14.43;3.13;;;;;;;19.59;47.72;102567.59;5089662;28;20395;-74
2022/10/07 02:34:35;;;;;;;23.50;3.13;;;;;;;19.36;48.65;102560.09;5087556;28;20040;-74
2022/10/07 02:37:06;;;;;;;17.77;3.70;;;;;;;19.04;49.42;102557.19;5092352;28;20025;-75
2022/10/07 02:39:32;;;;;;;17.50;3.10;;;;;;;18.74;50.33;102559.44;5088880;28;20425;-75
2022/10/07 02:42:08;;;;;;;20.20;3.73;;;;;;;19.59;48.43;102546.38;5091348;28;20128;-75
2022/10/07 02:44:56;;;;;;;14.37;2.90;;;;;;;18.64;50.46;102549.88;5092336;28;20032;-74
2022/10/07 02:47:38;;;;;;;19.40;4.13;;;;;;;19.05;50.38;102536.84;5089336;28;20017;-74
2022/10/07 02:50:09;;;;;;;33.40;4.10;;;;;;;19.13;50.19;102534.94;5090921;28;20073;-75
2022/10/07 02:52:36;;;;;;;17.27;3.53;;;;;;;19.32;49.14;102531.00;5092776;28;20016;-75
2022/10/07 02:55:13;;;;;;;20.70;3.80;;;;;;;19.29;48.86;102532.88;5087980;28;20016;-75
2022/10/07 02:57:43;;;;;;;17.30;3.50;;;;;;;18.57;51.18;102540.31;5080496;28;20028;-74
2022/10/07 03:00:09;;;;;;;27.20;4.53;;;;;;;18.82;50.25;102538.09;5095071;28;20032;-75
2022/10/07 03:02:41;;;;;;;19.47;3.97;;;;;;;19.17;48.92;102525.16;5094578;28;20521;-75
2022/10/07 03:05:08;;;;;;;20.43;4.43;;;;;;;18.74;50.89;102526.75;5091322;28;20119;-74
2022/10/07 03:07:34;;;;;;;19.30;4.40;;;;;;;18.58;50.78;102532.31;5091768;28;20028;-75
2022/10/07 03:10:01;;;;;;;14.47;3.20;;;;;;;18.44;51.74;102531.69;5090909;28;20055;-75
2022/10/07 03:12:27;;;;;;;23.03;4.27;;;;;;;18.67;51.92;102526.03;5092734;28;20020;-75
2022/10/07 03:14:53;;;;;;;24.33;3.70;;;;;;;18.93;50.94;102527.34;5091654;28;20136;-74
2022/10/07 03:17:19;;;;;;;23.87;4.23;;;;;;;18.40;52.27;102525.56;5091946;28;20183;-75
2022/10/07 03:19:44;;;;;;;19.13;4.07;;;;;;;18.48;52.27;102526.31;5092268;28;20035;-75
2022/10/07 03:22:09;;;;;;;28.20;4.13;;;;;;;18.20;53.12;102511.78;5091953;28;20082;-75
2022/10/07 03:24:35;;;;;;;23.67;4.20;;;;;;;18.81;50.82;102518.69;5090779;28;20053;-75
2022/10/07 03:27:00;;;;;;;14.20;3.43;;;;;;;19.00;49.74;102513.09;5092499;28;20034;-75
2022/10/07 03:29:26;;;;;;;19.87;4.37;;;;;;;18.21;52.10;102516.19;5093715;28;20468;-75
2022/10/07 03:31:54;;;;;;;21.40;3.70;;;;;;;18.16;53.28;102512.72;5091622;28;20028;-75
2022/10/07 03:34:19;;;;;;;17.90;4.93;;;;;;;18.48;52.11;102510.44;5093277;28;20035;-74
2022/10/07 03:36:45;;;;;;;26.23;4.83;;;;;;;18.57;51.29;102513.81;5089565;28;20031;-75
2022/10/07 03:39:10;;;;;;;16.50;4.70;;;;;;;18.27;52.85;102510.78;5092450;28;20077;-75
2022/10/07 03:41:36;;;;;;;19.07;4.00;;;;;;;18.34;51.77;102506.25;5090821;28;20038;-75
2022/10/07 03:44:01;;;;;;;23.30;5.47;;;;;;;18.05;52.72;102505.84;5091107;28;20024;-74
2022/10/07 03:46:27;;;;;;;21.10;4.33;;;;;;;16.88;56.41;102502.78;5104234;27;20092;-75
2022/10/07 03:48:52;;;;;;;15.43;4.60;;;;;;;18.37;52.20;102496.50;5092148;28;20028;-75
2022/10/07 03:51:18;;;;;;;17.50;3.37;;;;;;;18.78;50.09;102492.28;5090916;28;20058;-75
2022/10/07 03:53:43;;;;;;;20.30;3.93;;;;;;;17.97;53.58;102497.13;5092160;28;20078;-75
2022/10/07 03:56:09;;;;;;;16.27;4.07;;;;;;;18.40;51.69;102501.75;5091171;28;20032;-74
2022/10/07 03:58:34;;;;;;;21.03;4.27;;;;;;;18.21;51.78;102495.88;5092839;28;20039;-75
2022/10/07 04:01:04;;;;;;;17.97;3.67;;;;;;;18.65;50.77;102496.03;5090464;28;20439;-74
2022/10/07 04:03:30;;;;;;;21.80;4.03;;;;;;;18.57;50.95;102490.84;5090958;28;20740;-75
2022/10/07 04:06:00;;;;;;;17.90;4.10;;;;;;;18.49;50.43;102484.81;5090765;28;20063;-74
2022/10/07 04:08:28;;;;;;;15.33;3.47;;;;;;;18.73;49.74;102488.81;5095907;28;20074;-74
2022/10/07 04:10:53;;;;;;;16.33;3.80;;;;;;;17.63;52.56;102485.22;5093302;28;20031;-74
2022/10/07 04:13:19;;;;;;;22.37;5.20;;;;;;;18.23;50.77;102485.25;5092421;28;20487;-74
2022/10/07 04:15:44;;;;;;;13.97;3.80;;;;;;;18.12;51.91;102473.06;5091775;28;20031;-75
2022/10/07 04:18:10;;;;;;;16.23;4.50;;;;;;;18.23;51.43;102474.66;5092124;28;20063;-75
2022/10/07 04:20:38;;;;;;;21.30;3.47;;;;;;;18.31;51.50;102475.41;5091927;28;20043;-74
2022/10/07 04:23:04;;;;;;;9.60;3.10;;;;;;;18.23;51.15;102480.84;5089926;28;20503;-74
2022/10/07 04:25:32;;;;;;;19.87;3.47;;;;;;;18.67;50.48;102478.34;5090425;28;20028;-75
2022/10/07 04:27:59;;;;;;;15.67;3.47;;;;;;;17.92;51.61;102468.09;5089939;28;20073;-75
2022/10/07 04:30:27;;;;;;;15.53;3.47;;;;;;;17.97;52.91;102468.03;5091638;28;20032;-75
2022/10/07 04:32:52;;;;;;;19.43;3.40;;;;;;;18.26;52.46;102472.00;5094968;28;20059;-74
2022/10/07 04:35:22;;;;;;;21.80;4.13;;;;;;;17.59;54.18;102464.13;5090761;28;20066;-74
2022/10/07 04:37:49;;;;;;;18.90;4.27;;;;;;;18.56;51.75;102475.00;5091292;28;20085;-74
2022/10/07 04:40:14;;;;;;;20.93;4.30;;;;;;;17.75;53.69;102476.25;5090885;28;20420;-74
2022/10/07 04:45:24;;;;;;;20.27;3.70;;;;;;;18.07;52.83;102466.97;5094317;28;20096;-75
2022/10/07 04:47:49;;;;;;;15.97;3.20;;;;;;;17.70;54.30;102466.63;5090049;28;20076;-75
2022/10/07 04:50:15;;;;;;;14.97;3.10;;;;;;;18.36;52.52;102468.28;5089135;28;20051;-75
2022/10/07 04:52:43;;;;;;;21.33;3.70;;;;;;;18.65;51.04;102462.47;5090629;28;20034;-75
2022/10/07 04:55:13;;;;;;;19.17;3.97;;;;;;;17.75;55.11;102460.38;5090865;28;20063;-74
2022/10/07 04:57:38;;;;;;;24.77;3.53;;;;;;;17.99;52.74;102455.63;5089735;28;20118;-75
2022/10/07 05:00:05;;;;;;;10.67;2.83;;;;;;;17.69;54.36;102455.16;5085988;28;20115;-75
2022/10/07 05:02:31;;;;;;;19.00;3.80;;;;;;;17.97;53.37;102454.81;5092536;28;20027;-74
2022/10/07 05:04:56;;;;;;;14.10;3.17;;;;;;;17.65;54.35;102458.75;5090516;28;20031;-74
2022/10/07 05:07:22;;;;;;;16.07;3.40;;;;;;;17.90;54.84;102453.09;5089191;28;20023;-74
2022/10/07 05:09:47;;;;;;;22.13;4.13;;;;;;;18.08;55.10;102444.91;5089078;28;20447;-75
2022/10/07 05:12:13;;;;;;;19.27;3.20;;;;;;;18.22;53.84;102451.78;5091574;28;20032;-75
2022/10/07 05:14:41;;;;;;;17.40;3.23;;;;;;;17.65;55.95;102453.44;5090473;28;20040;-74
2022/10/07 05:17:07;;;;;;;15.23;2.80;;;;;;;18.10;53.92;102447.53;5089763;28;20031;-74
2022/10/07 05:19:32;;;;;;;12.20;3.17;;;;;;;18.13;54.50;102443.09;5095998;28;20034;-75
2022/10/07 05:21:58;;;;;;;19.60;3.13;;;;;;;18.75;52.09;102434.06;5091819;28;20081;-75
2022/10/07 05:24:23;;;;;;;13.60;2.70;;;;;;;18.56;51.99;102432.63;5088705;28;20522;-75
2022/10/07 05:26:50;;;;;;;18.10;3.73;;;;;;;18.80;51.44;102437.47;5090388;28;20035;-75
2022/10/07 05:29:15;;;;;;;14.70;3.30;;;;;;;18.19;52.59;102427.97;5091539;28;20039;-74
2022/10/07 05:31:41;;;;;;;21.03;4.43;;;;;;;17.72;53.47;102439.28;5088392;28;20024;-74
2022/10/07 05:34:06;;;;;;;17.50;3.73;;;;;;;17.86;52.85;102436.41;5096077;28;20420;-74
2022/10/07 05:36:33;;;;;;;17.40;3.60;;;;;;;18.53;52.28;102422.09;5089117;28;20020;-75
2022/10/07 05:38:58;;;;;;;14.37;2.80;;;;;;;18.05;53.08;102429.09;5086989;28;20499;-74
2022/10/07 05:41:26;;;;;;;15.03;2.87;;;;;;;17.48;55.35;102434.31;5090169;28;20521;-75
2022/10/07 05:43:52;;;;;;;16.13;3.43;;;;;;;17.40;55.28;102416.78;5089558;28;20429;-74
2022/10/07 05:46:22;;;;;;;17.87;3.90;;;;;;;18.10;53.77;102424.59;5081339;28;20032;-75
2022/10/07 05:48:52;;;;;;;13.37;3.23;;;;;;;17.58;54.69;102420.94;5090349;28;20035;-75
2022/10/07 05:51:19;;;;;;;21.57;3.50;;;;;;;18.25;51.67;102419.94;5090532;28;20192;-75
2022/10/07 05:53:45;;;;;;;22.53;3.47;;;;;;;18.26;52.49;102416.41;5089567;28;20034;-75
2022/10/07 05:56:14;;;;;;;22.07;3.17;;;;;;;18.70;52.15;102404.13;5088691;28;20103;-74
2022/10/07 05:58:40;;;;;;;15.23;3.60;;;;;;;18.38;52.27;102408.25;5086962;28;20147;-75
2022/10/07 06:01:10;;;;;;;17.00;3.03;;;;;;;18.08;52.94;102415.81;5091818;28;20119;-75
2022/10/07 06:03:37;;;;;;;19.43;3.57;;;;;;;18.24;52.43;102418.19;5089720;28;20028;-74
2022/10/07 06:06:03;;;;;;;26.73;3.67;;;;;;;18.25;54.01;102422.59;5089658;28;20032;-75
2022/10/07 06:08:28;;;;;;;19.77;3.27;;;;;;;17.53;55.83;102408.69;5107271;28;20031;-75
2022/10/07 06:13:47;;;;;;;16.40;2.97;;;;;;;18.44;52.04;102407.28;5090076;28;20038;-75
2022/10/07 06:16:13;;;;;;;13.37;3.30;;;;;;;17.87;54.45;102410.81;5093355;27;20035;-75
2022/10/07 06:18:38;;;;;;;20.33;3.57;;;;;;;18.13;54.44;102408.69;5087974;28;20028;-75
2022/10/07 06:21:04;;;;;;;13.67;3.87;;;;;;;17.52;54.57;102406.94;5104274;27;20468;-75
2022/10/07 06:23:31;;;;;;;20.30;3.60;;;;;;;18.19;53.10;102409.44;5100809;27;20065;-77
2022/10/07 06:25:59;;;;;;;18.27;3.87;;;;;;;18.37;51.94;102406.50;5092404;28;20411;-75
2022/10/07 06:28:31;;;;;;;23.50;4.40;;;;;;;18.09;53.16;102412.28;5092116;28;20024;-75
2022/10/07 06:30:56;;;;;;;19.57;4.80;;;;;;;18.56;51.58;102406.16;5093689;28;20070;-75
2022/10/07 06:33:21;;;;;;;22.43;3.73;;;;;;;18.01;52.78;102424.75;5092080;28;20051;-75
2022/10/07 06:35:47;;;;;;;22.40;4.23;;;;;;;18.12;54.33;102419.25;5093427;28;20450;-74
2022/10/07 06:38:12;;;;;;;22.00;5.77;;;;;;;18.13;54.80;102424.56;5094710;28;20161;-74
2022/10/07 06:40:38;;;;;;;14.63;3.60;;;;;;;18.12;54.76;102412.22;5093341;28;20488;-75
2022/10/07 06:43:04;;;;;;;18.17;3.77;;;;;;;19.08;52.29;102414.88;5093982;28;20399;-74
2022/10/07 06:45:31;;;;;;;18.40;4.30;;;;;;;18.25;54.04;102418.16;5092935;28;20063;-74
2022/10/07 06:47:56;;;;;;;20.43;5.10;;;;;;;18.45;54.18;102420.47;5091947;28;20028;-75
2022/10/07 06:50:22;;;;;;;22.97;4.10;;;;;;;18.02;54.05;102415.91;5093215;28;20089;-74
2022/10/07 06:52:48;;;;;;;18.73;4.63;;;;;;;18.66;52.93;102402.44;5092680;28;20508;-75
2022/10/07 06:55:13;;;;;;;22.20;3.97;;;;;;;18.58;52.77;102407.88;5084321;28;20036;-75
2022/10/07 06:57:40;;;;;;;19.53;3.90;;;;;;;18.65;52.76;102400.69;5093435;28;20020;-75
2022/10/07 07:00:06;;;;;;;23.43;3.50;;;;;;;18.37;53.75;102398.56;5093477;28;20055;-75
2022/10/07 07:02:32;;;;;;;22.00;3.93;;;;;;;18.92;52.57;102396.66;5092909;28;20020;-75
2022/10/07 07:04:58;;;;;;;20.23;4.07;;;;;;;18.74;52.90;102399.63;5093333;28;20123;-75
2022/10/07 07:07:23;;;;;;;19.77;3.70;;;;;;;19.12;51.61;102398.91;5093368;28;20106;-74
2022/10/07 07:09:52;;;;;;;15.03;3.10;;;;;;;19.03;52.14;102399.09;5092588;28;20030;-75
2022/10/07 07:12:17;;;;;;;14.27;3.10;;;;;;;18.61;52.22;102399.00;5093378;28;20030;-75
2022/10/07 07:14:45;;;;;;;16.30;3.30;;;;;;;18.88;52.50;102396.78;5093379;28;20035;-75
2022/10/07 07:17:11;;;;;;;17.07;3.37;;;;;;;18.61;53.14;102404.31;5093847;28;20038;-75
2022/10/07 07:19:36;;;;;;;24.43;3.57;;;;;;;18.31;52.37;102417.19;5093020;28;20028;-75
2022/10/07 07:22:02;;;;;;;19.27;3.80;;;;;;;18.61;53.51;102409.59;5093141;28;20047;-74
2022/10/07 07:24:28;;;;;;;19.17;2.97;;;;;;;19.28;51.95;102407.38;5093949;28;20050;-74
2022/10/07 07:26:53;;;;;;;17.37;3.47;;;;;;;19.31;51.54;102415.28;5092593;28;20473;-75
2022/10/07 07:29:19;;;;;;;15.83;3.20;;;;;;;19.50;51.32;102407.78;5093050;28;20028;-75
2022/10/07 07:31:44;;;;;;;11.30;3.33;;;;;;;20.11;49.61;102415.25;5092316;28;20034;-75
2022/10/07 07:34:11;;;;;;;21.77;3.43;;;;;;;19.61;50.04;102398.72;5093290;28;20027;-74
2022/10/07 07:36:41;;;;;;;13.93;3.10;;;;;;;18.68;53.65;102407.72;5092659;28;20397;-74
2022/10/07 07:39:09;;;;;;;17.03;3.40;;;;;;;19.06;52.20;102401.69;5092085;28;20082;-75
2022/10/07 07:41:39;;;;;;;19.20;3.15;;;;;;;19.43;51.66;102398.22;5092783;28;20089;-74
2022/10/07 07:44:07;;;;;;;26.63;5.00;;;;;;;19.56;51.08;102396.16;5091784;28;20023;-74
2022/10/07 07:46:40;;;;;;;15.60;3.08;;;;;;;19.43;52.61;102390.28;5092663;28;20181;-74
2022/10/07 07:49:05;;;;;;;22.20;3.83;;;;;;;19.28;52.02;102393.28;5092643;28;20047;-74
2022/10/07 07:51:31;;;;;;;22.40;3.70;;;;;;;20.09;49.18;102390.50;5091622;28;20488;-75
2022/10/07 07:53:58;;;;;;;19.33;3.40;;;;;;;20.34;48.67;102396.03;5093893;28;20012;-74
2022/10/07 07:56:24;;;;;;;12.50;2.53;;;;;;;19.01;51.32;102395.59;5093807;28;20022;-74
2022/10/07 07:58:50;;;;;;;16.35;2.92;;;;;;;19.52;53.03;102398.94;5091479;28;20073;-75
2022/10/07 08:01:17;;;;;;;16.52;2.83;;;;;;;18.94;53.42;102402.78;5092375;28;20399;-74
2022/10/07 08:03:45;;;;;;;17.13;3.05;;;;;;;19.58;51.65;102394.34;5092496;28;20569;-74
2022/10/07 08:06:12;;;;;;;18.10;3.60;;;;;;;19.45;52.19;102388.47;5092864;28;20545;-74
2022/10/07 08:08:38;;;;;;;14.25;2.97;;;;;;;19.46;52.37;102398.16;5093577;28;20024;-74
2022/10/07 08:11:13;;;;;;;14.05;3.13;;;;;;;21.06;48.54;102389.69;5092206;28;20388;-75
2022/10/07 08:13:40;;;;;;;17.48;3.65;;;;;;;20.91;48.50;102382.13;5091561;28;20441;-75
2022/10/07 08:16:06;;;;;;;16.05;2.70;;;;;;;20.70;48.13;102386.28;5092088;28;20451;-74
2022/10/07 08:18:32;;;;;;;26.13;3.53;;;;;;;21.09;47.36;102378.94;5091914;28;20077;-74
2022/10/07 08:21:00;;;;;;;20.13;3.67;;;;;;;20.48;49.28;102379.75;5091206;28;20053;-74
2022/10/07 08:23:28;;;;;;;14.77;2.97;;;;;;;21.27;48.56;102388.16;5091982;28;20107;-74
2022/10/07 08:25:57;;;;;;;12.73;2.85;;;;;;;21.85;47.12;102382.78;5091639;28;20024;-74
2022/10/07 08:28:23;;;;;;;19.20;2.92;;;;;;;21.67;47.97;102376.28;5090974;28;20023;-74
2022/10/07 08:30:53;;;;;;;17.55;2.45;;;;;;;21.33;47.64;102379.97;5091724;28;20084;-74
2022/10/07 08:33:19;;;;;;;16.42;2.70;;;;;;;22.01;46.85;102372.50;5092245;28;20076;-74
2022/10/07 08:35:58;;;;;;;21.25;3.58;;;;;;;22.13;46.50;102376.56;5091740;28;20028;-74
2022/10/07 08:38:27;;;;;;;18.13;2.95;;;;;;;21.63;46.96;102369.31;5092247;28;20016;-74
2022/10/07 08:40:53;;;;;;;13.65;2.88;;;;;;;20.73;49.99;102363.16;5092392;28;20024;-73
2022/10/07 08:43:22;;;;;;;17.98;2.55;;;;;;;21.51;47.03;102373.22;5091585;28;20085;-74
2022/10/07 08:45:50;;;;;;;17.15;2.78;;;;;;;22.04;46.96;102368.88;5091385;28;20024;-74
2022/10/07 08:48:23;;;;;;;14.68;2.45;;;;;;;23.23;44.35;102355.72;5090590;28;20023;-74
2022/10/07 08:51:03;;;;;;;17.80;3.03;;;;;;;22.77;44.93;102348.53;5091300;28;20101;-74
2022/10/07 08:53:33;;;;;;;13.77;3.05;;;;;;;21.14;48.30;102361.09;5092876;28;20039;-73
2022/10/07 08:56:12;;;;;;;15.18;2.97;;;;;;;21.91;46.83;102351.56;5090687;28;20043;-74
2022/10/07 08:58:57;;;;;;;19.25;3.63;;;;;;;21.85;46.69;102350.00;5092464;28;20028;-74
2022/10/07 09:01:25;;;;;;;18.80;3.20;;;;;;;21.70;46.14;102346.03;5091850;28;20044;-74
2022/10/07 09:03:53;;;;;;;14.82;3.05;;;;;;;22.15;47.11;102345.41;5091326;28;20025;-74
2022/10/07 09:06:44;;;;;;;22.90;3.20;;;;;;;21.23;48.04;102343.09;5092418;28;20100;-74
2022/10/07 09:09:21;;;;;;;15.88;2.58;;;;;;;22.01;47.11;102329.06;5090560;28;20020;-74
2022/10/07 09:11:48;;;;;;;15.90;2.50;;;;;;;20.95;48.59;102334.19;5091002;28;20024;-74
2022/10/07 09:14:26;;;;;;;14.95;2.78;;;;;;;22.43;46.47;102325.81;5092465;28;20028;-72
2022/10/07 09:16:54;;;;;;;17.30;3.33;;;;;;;22.89;45.47;102325.88;5090338;28;20024;-74
2022/10/07 09:19:29;;;;;;;16.35;3.13;;;;;;;22.67;44.57;102336.50;5090868;28;20035;-73
2022/10/07 09:22:04;;;;;;;20.23;2.83;;;;;;;21.65;46.84;102347.97;5090602;28;20097;-73
2022/10/07 09:24:30;;;;;;;13.90;3.67;;;;;;;21.02;49.94;102350.81;5090348;28;20395;-73
2022/10/07 09:27:01;;;;;;;14.48;3.20;;;;;;;21.32;47.28;102348.13;5090884;28;20027;-73
2022/10/07 09:29:29;;;;;;;10.45;2.58;;;;;;;21.92;47.54;102345.34;5089970;28;20046;-74
2022/10/07 09:31:55;;;;;;;19.00;3.17;;;;;;;21.56;47.35;102345.66;5090632;28;20073;-73
2022/10/07 09:34:26;;;;;;;17.33;2.97;;;;;;;22.02;46.49;102336.09;5090702;28;20069;-73
2022/10/07 09:37:21;;;;;;;18.63;2.35;;;;;;;21.94;47.28;102343.47;5090093;28;20024;-74
2022/10/07 09:39:49;;;;;;;17.35;3.22;;;;;;;21.74;47.60;102350.34;5090606;28;20120;-73
2022/10/07 09:42:38;;;;;;;18.92;2.95;;;;;;;22.60;45.88;102340.28;5091933;28;20479;-73
2022/10/07 09:45:22;;;;;;;15.30;2.45;;;;;;;22.00;46.72;102340.63;5091193;28;20457;-74
2022/10/07 09:47:53;;;;;;;13.88;2.47;;;;;;;23.03;44.85;102334.22;5090596;28;20475;-74
2022/10/07 09:50:45;;;;;;;13.55;2.85;;;;;;;24.79;41.22;102328.63;5092392;28;20112;-74
2022/10/07 09:53:24;;;;;;;11.70;2.53;;;;;;;24.58;41.59;102321.56;5094142;28;20119;-74
2022/10/07 09:55:51;;;;;;;15.63;3.42;;;;;;;22.76;45.03;102320.13;5094715;28;20016;-74
2022/10/07 09:58:29;;;;;;;11.77;2.85;;;;;;;22.63;44.33;102316.22;5093871;28;20031;-74
2022/10/07 10:01:00;;;;;;;12.10;2.63;;;;;;;23.10;43.05;102310.84;5094827;28;20495;-74
2022/10/07 10:03:34;;;;;;;17.95;2.78;;;;;;;24.77;41.20;102314.47;5094541;28;20020;-74
2022/10/07 10:06:02;;;;;;;18.02;2.65;;;;;;;25.12;39.92;102303.88;5093951;28;20023;-74
2022/10/07 10:08:34;;;;;;;19.65;2.40;;;;;;;23.54;42.14;102310.84;5094451;28;20027;-74
2022/10/07 10:11:05;;;;;;;12.70;2.25;;;;;;;22.90;43.48;102297.41;5095691;28;20086;-74
2022/10/07 10:13:37;;;;;;;13.07;2.33;;;;;;;23.04;44.28;102292.44;5093684;28;20111;-73
2022/10/07 10:16:05;;;;;;;14.87;2.53;;;;;;;24.02;42.29;102286.66;5095741;28;20050;-73
2022/10/07 10:18:38;;;;;;;33.80;4.03;;;;;;;25.11;39.96;102291.44;5094161;28;20016;-73
2022/10/07 10:21:28;;;;;;;;;;;;;;;24.80;40.54;102294.72;5094672;28;20024;-74
2022/10/07 10:23:59;;;;;;;13.30;1.90;;;;;;;23.35;42.58;102281.41;5086580;28;20416;-73
2022/10/07 10:26:36;;;;;;;15.57;1.92;;;;;;;23.54;42.32;102281.50;5094844;28;20028;-73
2022/10/07 10:29:08;;;;;;;11.57;2.20;;;;;;;23.52;42.06;102275.38;5095410;28;20077;-74
2022/10/07 10:31:59;;;;;;;17.02;2.35;;;;;;;23.12;43.43;102269.03;5095194;28;20488;-73
2022/10/07 10:34:41;;;;;;;19.65;3.05;;;;;;;23.30;43.43;102272.75;5085194;28;20036;-74
2022/10/07 10:38:00;;;;;;;12.88;2.80;;;;;;;22.98;43.93;102274.84;5094081;28;20020;-73
2022/10/07 10:40:49;;;;;;;17.80;2.50;;;;;;;23.67;42.64;102264.97;5035427;28;20068;-74
2022/10/07 10:43:29;;;;;;;12.93;2.60;;;;;;;22.17;44.99;102263.69;5093918;28;20032;-74
2022/10/07 10:46:06;;;;;;;18.30;3.42;;;;;;;23.55;43.24;102248.56;5093714;28;20028;-73
2022/10/07 10:49:09;;;;;;;13.75;2.65;;;;;;;23.08;43.46;102251.38;5092871;28;20023;-73
2022/10/07 10:51:41;;;;;;;13.27;2.28;;;;;;;23.54;42.59;102238.81;5093765;28;20051;-73
2022/10/07 10:54:26;;;;;;;10.27;2.10;;;;;;;24.68;40.46;102242.72;5093252;28;20532;-73
2022/10/07 10:57:14;;;;;;;14.45;3.03;;;;;;;23.99;41.43;102244.06;5093539;28;20103;-73
2022/10/07 11:00:00;;;;;;;14.52;2.63;;;;;;;24.33;41.12;102239.84;5093182;28;20123;-73
2022/10/07 11:02:37;;;;;;;13.00;2.47;;;;;;;22.84;42.91;102243.41;5092114;28;20042;-73
2022/10/07 11:05:16;;;;;;;9.93;2.10;;;;;;;24.42;40.27;102231.41;5093423;28;20502;-73
2022/10/07 11:08:11;;;;;;;12.48;2.45;;;;;;;22.79;43.12;102240.09;5093330;28;20043;-73
2022/10/07 11:10:47;;;;;;;12.13;1.98;;;;;;;24.91;40.49;102228.25;5091333;28;20040;-74
2022/10/07 11:13:16;;;;;;;11.32;2.55;;;;;;;23.90;41.65;102217.78;5094961;28;20032;-73
2022/10/07 11:15:52;;;;;;;11.68;2.30;;;;;;;23.17;42.37;102224.34;5092849;28;20024;-73
2022/10/07 11:18:33;;;;;;;19.58;2.65;;;;;;;23.34;42.33;102217.44;5093596;28;20059;-73
2022/10/07 11:21:02;;;;;;;14.32;3.05;;;;;;;22.85;44.05;102215.84;5092837;28;20043;-73
2022/10/07 11:23:51;;;;;;;16.08;1.90;;;;;;;25.19;39.23;102209.00;5093931;28;20039;-73
2022/10/07 11:26:16;;;;;;;13.50;1.70;;;;;;;24.12;41.47;102212.31;5092457;28;20502;-74
2022/10/07 11:28:43;;;;;;;18.25;2.67;;;;;;;24.50;39.88;102207.00;5092975;28;20020;-74
2022/10/07 11:31:32;;;;;;;14.27;2.00;;;;;;;24.25;40.64;102207.28;5091895;28;20461;-73
2022/10/07 11:34:22;;;;;;;12.02;2.03;;;;;;;23.93;41.68;102206.94;5088559;28;20036;-73
2022/10/07 11:37:02;;;;;;;15.13;2.58;;;;;;;24.60;39.30;102197.59;5092057;28;20020;-73
2022/10/07 11:39:29;;;;;;;20.02;2.55;;;;;;;25.02;39.45;102192.97;5092718;28;20051;-73